Time;durP1;ratioP1;P1;durP2;ratioP2;P2;SDS_P1;SDS_P2;PMS_P1;PMS_P2;Temp;Humidity;BMP_temperature;BMP_pressure;BME280_temperature;BME280_humidity;BME280_pressure;Samples;Min_cycle;Max_cycle;Signal;HPM_P1;HPM_P2
2023/01/02 00:01:35;;;;;;;5.77;2.00;;;31.30;99.90;;;;;;5070852;28;20241;-73
2023/01/02 00:04:02;;;;;;;5.73;1.67;;;31.60;99.90;;;;;;5076171;28;20190;-73
2023/01/02 00:06:36;;;;;;;5.67;2.13;;;31.90;99.90;;;;;;5071190;28;20619;-74
2023/01/02 00:09:05;;;;;;;9.47;1.97;;;32.10;99.90;;;;;;5070961;28;20171;-73
2023/01/02 00:11:33;;;;;;;8.40;2.03;;;31.80;99.90;;;;;;5071037;28;20226;-73
2023/01/02 00:14:01;;;;;;;6.20;1.73;;;31.70;99.90;;;;;;5072085;28;20203;-74
2023/01/02 00:16:29;;;;;;;7.47;2.10;;;31.70;99.90;;;;;;5070815;28;20193;-75
2023/01/02 00:18:57;;;;;;;5.07;1.97;;;31.50;99.90;;;;;;5071107;28;20176;-71
2023/01/02 00:21:24;;;;;;;5.50;2.10;;;31.40;99.90;;;;;;5074472;28;20289;-71
2023/01/02 00:23:51;;;;;;;11.07;2.47;;;30.90;99.90;;;;;;5085383;28;20194;-72
2023/01/02 00:26:22;;;;;;;5.20;1.70;;;30.90;99.90;;;;;;5095238;28;20182;-72
2023/01/02 00:28:49;;;;;;;3.60;1.23;;;31.30;99.90;;;;;;5095405;28;20171;-74
2023/01/02 00:31:16;;;;;;;6.00;1.70;;;31.20;99.90;;;;;;5087783;28;20184;-72
2023/01/02 00:33:44;;;;;;;4.53;1.52;;;30.90;99.90;;;;;;5084084;28;20223;-73
2023/01/02 00:36:13;;;;;;;8.67;2.17;;;30.60;99.90;;;;;;5095223;28;20263;-72
2023/01/02 00:38:41;;;;;;;4.43;1.53;;;30.60;99.90;;;;;;5094390;28;20538;-73
2023/01/02 00:41:08;;;;;;;4.45;1.48;;;31.30;99.90;;;;;;5093834;28;20591;-72
2023/01/02 00:43:36;;;;;;;5.07;1.60;;;31.60;99.90;;;;;;5086334;28;20634;-73
2023/01/02 00:46:04;;;;;;;7.63;1.57;;;31.90;99.90;;;;;;5078750;28;20633;-72
2023/01/02 00:48:31;;;;;;;8.03;1.73;;;32.00;99.90;;;;;;5094807;28;20897;-73
2023/01/02 00:50:59;;;;;;;5.40;1.70;;;31.90;99.90;;;;;;5089366;28;20186;-73
2023/01/02 00:53:26;;;;;;;5.72;1.55;;;31.70;99.90;;;;;;5082504;28;20677;-73
2023/01/02 00:55:53;;;;;;;4.97;1.85;;;32.20;99.90;;;;;;5079207;28;21072;-73
2023/01/02 00:58:21;;;;;;;2.60;1.17;;;32.90;99.90;;;;;;5074403;28;20233;-72
2023/01/02 01:00:50;;;;;;;5.43;1.40;;;32.50;99.90;;;;;;5074173;28;20184;-73
2023/01/02 01:03:17;;;;;;;4.03;1.60;;;32.40;99.90;;;;;;5079438;28;20600;-73
2023/01/02 01:05:45;;;;;;;4.97;1.65;;;32.70;99.90;;;;;;5094728;28;20207;-72
2023/01/02 01:08:12;;;;;;;8.90;1.80;;;33.10;99.90;;;;;;5091942;28;20266;-72
2023/01/02 01:10:40;;;;;;;6.07;1.70;;;33.00;99.90;;;;;;5085951;28;20276;-73
2023/01/02 01:13:07;;;;;;;5.05;1.75;;;32.60;99.90;;;;;;5074258;28;20210;-72
2023/01/02 01:15:35;;;;;;;10.93;2.60;;;31.90;99.90;;;;;;5073867;28;20207;-72
2023/01/02 01:18:03;;;;;;;7.30;1.40;;;31.90;99.90;;;;;;5074280;28;20180;-72
2023/01/02 01:20:30;;;;;;;18.30;2.47;;;31.90;98.60;;;;;;5074220;28;20171;-72
2023/01/02 01:22:58;;;;;;;8.63;2.03;;;31.60;99.90;;;;;;5079067;28;20230;-72
2023/01/02 01:25:28;;;;;;;8.33;1.93;;;31.70;99.90;;;;;;5091111;28;20183;-72
2023/01/02 01:27:55;;;;;;;4.18;1.40;;;32.30;97.80;;;;;;5078377;28;20184;-72
2023/01/02 01:30:23;;;;;;;5.13;1.33;;;32.40;96.40;;;;;;5073604;28;20325;-72
2023/01/02 01:32:50;;;;;;;16.33;2.03;;;32.60;96.80;;;;;;5072546;28;20258;-73
2023/01/02 01:35:18;;;;;;;3.15;1.40;;;32.60;93.00;;;;;;5093586;28;20530;-72
2023/01/02 01:37:45;;;;;;;5.30;1.52;;;32.70;91.50;;;;;;5078965;28;20199;-72
2023/01/02 01:40:12;;;;;;;4.10;1.42;;;32.10;93.50;;;;;;5075489;28;20267;-72
2023/01/02 01:42:40;;;;;;;4.90;1.40;;;32.30;94.50;;;;;;5072530;28;20183;-73
2023/01/02 01:45:17;;;;;;;5.10;1.60;;;32.70;92.40;;;;;;5073175;28;20711;-73
2023/01/02 01:54:41;;;;;;;3.33;1.17;;;32.60;95.20;;;;;;5077752;28;20257;-71
2023/01/02 01:57:17;;;;;;;6.22;1.80;;;32.80;91.20;;;;;;5085230;28;20179;-69
2023/01/02 01:59:45;;;;;;;10.13;2.10;;;32.80;90.00;;;;;;5073071;28;20194;-70
2023/01/02 02:02:13;;;;;;;5.03;1.48;;;32.70;97.90;;;;;;5073431;28;20536;-70
2023/01/02 02:04:43;;;;;;;6.07;1.40;;;32.60;95.10;;;;;;5073345;28;20639;-73
2023/01/02 02:07:11;;;;;;;4.25;1.50;;;32.90;96.50;;;;;;5072927;28;20191;-69
2023/01/02 02:09:50;;;;;;;5.05;1.52;;;33.10;92.20;;;;;;5073211;28;20175;-70
2023/01/02 02:12:17;;;;;;;3.03;1.33;;;33.00;93.50;;;;;;5073136;28;20223;-72
2023/01/02 02:14:45;;;;;;;6.97;1.70;;;33.40;93.70;;;;;;5072558;28;20214;-72
2023/01/02 02:17:24;;;;;;;4.73;1.30;;;32.70;95.70;;;;;;5085790;28;20219;-69
2023/01/02 02:20:16;;;;;;;6.03;1.77;;;31.90;97.30;;;;;;5093158;28;20190;-70
2023/01/02 02:23:19;;;;;;;7.03;1.60;;;31.80;99.90;;;;;;5072717;28;20195;-69
2023/01/02 02:26:00;;;;;;;5.53;1.30;;;32.70;99.90;;;;;;5073781;28;20178;-71
2023/01/02 02:28:46;;;;;;;4.03;1.45;;;32.70;99.90;;;;;;5092910;28;20206;-71
2023/01/02 02:31:44;;;;;;;6.45;1.88;;;32.90;99.90;;;;;;5092726;28;20633;-69
2023/01/02 02:34:42;;;;;;;6.20;1.70;;;33.10;96.10;;;;;;5092593;28;20226;-71
2023/01/02 02:37:16;;;;;;;5.15;1.75;;;33.00;96.10;;;;;;5076924;28;20191;-73
2023/01/02 02:40:00;;;;;;;2.38;1.27;;;32.30;98.80;;;;;;5072520;28;20199;-71
2023/01/02 02:42:57;;;;;;;5.00;1.60;;;32.00;99.20;;;;;;5072100;28;20191;-70
2023/01/02 02:46:01;;;;;;;3.58;1.58;;;32.40;97.30;;;;;;5071848;28;20184;-70
2023/01/02 02:48:49;;;;;;;5.18;1.30;;;32.70;99.90;;;;;;5072318;28;20186;-70
2023/01/02 02:51:42;;;;;;;7.78;1.83;;;33.10;99.90;;;;;;5071792;28;20164;-69
2023/01/02 02:54:18;;;;;;;6.68;1.40;;;33.20;99.70;;;;;;5072136;28;20207;-73
2023/01/02 02:56:46;;;;;;;6.28;1.70;;;33.20;99.90;;;;;;5082100;28;20216;-70
2023/01/02 02:59:13;;;;;;;4.43;1.40;;;33.00;99.90;;;;;;5091820;28;20168;-69
2023/01/02 03:01:41;;;;;;;7.45;1.50;;;33.20;99.90;;;;;;5091615;28;20668;-70
2023/01/02 03:04:34;;;;;;;5.53;1.20;;;33.30;99.90;;;;;;5092137;28;20518;-69
2023/01/02 03:07:11;;;;;;;5.32;1.17;;;33.30;99.90;;;;;;5086554;28;20183;-70
2023/01/02 03:10:10;;;;;;;4.80;1.30;;;33.10;99.90;;;;;;5091955;28;20182;-69
2023/01/02 03:12:48;;;;;;;6.93;1.38;;;33.00;99.90;;;;;;5081369;28;20215;-75
2023/01/02 03:15:20;;;;;;;6.18;1.45;;;33.00;99.90;;;;;;5077423;28;20261;-70
2023/01/02 03:18:24;;;;;;;6.10;1.42;;;32.80;99.90;;;;;;5087485;28;20623;-70
2023/01/02 03:21:08;;;;;;;6.50;1.52;;;33.00;99.90;;;;;;5091589;28;20656;-70
2023/01/02 03:23:46;;;;;;;4.18;1.30;;;32.90;99.90;;;;;;5092100;28;20546;-70
2023/01/02 03:26:17;;;;;;;2.83;1.02;;;32.90;99.90;;;;;;5082989;28;20168;-69
2023/01/02 03:28:50;;;;;;;4.32;1.73;;;32.50;99.90;;;;;;5072410;28;20180;-69
2023/01/02 03:31:20;;;;;;;3.38;1.05;;;32.70;99.90;;;;;;5070513;28;20665;-71
2023/01/02 03:34:00;;;;;;;5.07;1.08;;;32.80;99.90;;;;;;5071805;28;20219;-69
2023/01/02 03:36:31;;;;;;;6.05;1.40;;;32.60;99.90;;;;;;5071446;28;20537;-67
2023/01/02 03:39:11;;;;;;;6.67;1.20;;;32.70;99.90;;;;;;5078891;28;20278;-67
2023/01/02 03:42:09;;;;;;;7.63;1.25;;;32.70;99.90;;;;;;5091877;28;20182;-69
2023/01/02 03:44:55;;;;;;;3.70;1.10;;;32.80;99.90;;;;;;5091732;28;20178;-74
2023/01/02 03:47:37;;;;;;;5.75;1.48;;;32.70;99.90;;;;;;5090023;28;20183;-74
2023/01/02 03:50:14;;;;;;;3.85;1.33;;;32.50;99.90;;;;;;5073381;28;20187;-70
2023/01/02 03:52:42;;;;;;;10.43;1.30;;;32.40;99.90;;;;;;5071422;28;20179;-70
2023/01/02 03:55:10;;;;;;;6.80;1.75;;;32.60;99.90;;;;;;5072558;28;20217;-69
2023/01/02 03:57:55;;;;;;;5.05;1.75;;;32.70;99.90;;;;;;5091152;28;20179;-70
2023/01/02 04:00:29;;;;;;;8.73;1.40;;;32.90;99.90;;;;;;5075867;28;20183;-69
2023/01/02 04:03:21;;;;;;;5.75;1.20;;;32.70;99.90;;;;;;5075657;28;20172;-69
2023/01/02 04:06:16;;;;;;;6.32;1.58;;;32.50;99.90;;;;;;5091885;28;20250;-69
2023/01/02 04:08:46;;;;;;;5.43;1.00;;;32.50;99.90;;;;;;5093260;28;20552;-72
2023/01/02 04:11:17;;;;;;;5.95;1.27;;;32.60;99.90;;;;;;5095297;28;20268;-70
2023/01/02 04:13:55;;;;;;;6.70;1.65;;;31.90;99.90;;;;;;5095110;28;20743;-71
2023/01/02 04:16:27;;;;;;;3.90;1.00;;;31.80;99.90;;;;;;5076807;28;20526;-70
2023/01/02 04:19:03;;;;;;;6.65;1.38;;;31.70;99.90;;;;;;5075163;28;20175;-69
2023/01/02 04:21:34;;;;;;;5.45;1.38;;;31.70;99.90;;;;;;5083401;28;20190;-71
2023/01/02 04:24:12;;;;;;;7.63;1.10;;;31.80;99.90;;;;;;5095383;28;20254;-71
2023/01/02 04:26:53;;;;;;;5.67;1.80;;;31.80;99.90;;;;;;5075137;28;20269;-70
2023/01/02 04:29:20;;;;;;;4.57;1.37;;;31.70;99.90;;;;;;5074619;28;20203;-74
2023/01/02 04:32:16;;;;;;;5.87;1.43;;;31.60;99.90;;;;;;5080613;28;20180;-74
2023/01/02 04:34:46;;;;;;;5.30;1.47;;;31.40;99.90;;;;;;5087141;28;20223;-72
2023/01/02 04:37:27;;;;;;;4.67;1.40;;;30.80;99.90;;;;;;5085387;28;20180;-75
2023/01/02 04:39:59;;;;;;;5.83;1.77;;;31.00;99.90;;;;;;5074937;28;20254;-73
2023/01/02 04:42:26;;;;;;;6.73;1.70;;;31.10;99.90;;;;;;5091598;28;20259;-75
2023/01/02 04:44:53;;;;;;;4.27;1.60;;;31.60;99.90;;;;;;5090007;28;20668;-75
2023/01/02 04:47:21;;;;;;;9.63;1.50;;;31.70;99.90;;;;;;5074889;28;20172;-72
2023/01/02 04:49:48;;;;;;;5.07;1.52;;;31.60;99.90;;;;;;5074168;28;20180;-71
2023/01/02 04:52:16;;;;;;;8.60;1.47;;;31.50;99.90;;;;;;5074749;28;20172;-72
2023/01/02 04:54:43;;;;;;;5.27;1.23;;;31.00;99.90;;;;;;5077168;28;20211;-72
2023/01/02 04:57:10;;;;;;;4.55;1.42;;;31.00;99.90;;;;;;5094251;28;20191;-73
2023/01/02 04:59:38;;;;;;;10.80;1.93;;;31.20;99.90;;;;;;5094397;28;20179;-70
2023/01/02 05:02:05;;;;;;;4.50;1.47;;;31.30;99.90;;;;;;5092605;28;20198;-73
2023/01/02 05:04:33;;;;;;;7.77;1.70;;;31.30;99.90;;;;;;5092491;28;20175;-70
2023/01/02 05:07:01;;;;;;;7.07;1.20;;;31.00;99.90;;;;;;5073970;28;20688;-72
2023/01/02 05:09:28;;;;;;;5.43;1.27;;;30.60;99.90;;;;;;5072799;28;20184;-70
2023/01/02 05:11:56;;;;;;;5.17;1.40;;;30.40;99.90;;;;;;5077272;28;20273;-71
2023/01/02 05:14:23;;;;;;;3.23;1.20;;;30.50;99.90;;;;;;5093778;28;20207;-70
2023/01/02 05:16:50;;;;;;;6.27;1.80;;;30.60;99.90;;;;;;5074117;28;20175;-68
2023/01/02 05:19:18;;;;;;;7.30;1.63;;;30.40;99.90;;;;;;5089113;28;20187;-68
2023/01/02 05:24:31;;;;;;;5.07;1.30;;;29.90;99.90;;;;;;5093153;28;20182;-70
2023/01/02 05:26:58;;;;;;;4.47;1.13;;;30.00;99.90;;;;;;5073389;28;20180;-73
2023/01/02 05:29:25;;;;;;;6.03;1.60;;;30.20;99.90;;;;;;5073920;28;20168;-73
2023/01/02 05:31:53;;;;;;;8.50;1.30;;;30.30;99.90;;;;;;5073977;28;20721;-69
2023/01/02 05:34:20;;;;;;;6.23;1.30;;;30.30;99.90;;;;;;5083651;28;20280;-69
2023/01/02 05:36:47;;;;;;;6.67;1.57;;;30.40;99.90;;;;;;5073799;28;20184;-69
2023/01/02 05:39:15;;;;;;;6.70;1.87;;;30.40;99.90;;;;;;5073976;28;20245;-72
2023/01/02 05:41:43;;;;;;;5.50;1.60;;;30.00;99.90;;;;;;5073579;28;20579;-69
2023/01/02 05:44:11;;;;;;;4.73;1.57;;;29.80;99.90;;;;;;5072279;28;20271;-68
2023/01/02 05:46:39;;;;;;;4.27;1.10;;;29.50;99.90;;;;;;5091607;28;20183;-71
2023/01/02 05:49:08;;;;;;;4.87;1.20;;;29.50;99.90;;;;;;5093402;28;20593;-71
2023/01/02 05:51:35;;;;;;;8.87;1.77;;;29.50;99.90;;;;;;5093779;28;20262;-71
2023/01/02 05:54:03;;;;;;;6.87;1.27;;;29.30;99.90;;;;;;5093530;28;20207;-69
2023/01/02 05:56:31;;;;;;;5.43;1.40;;;29.10;99.90;;;;;;5074291;28;20184;-68
2023/01/02 05:58:58;;;;;;;6.90;1.43;;;28.90;99.90;;;;;;5073121;28;20642;-70
2023/01/02 06:01:28;;;;;;;5.93;1.90;;;28.90;99.90;;;;;;5073169;28;20290;-68
2023/01/02 06:03:57;;;;;;;5.80;1.43;;;29.00;99.90;;;;;;5086951;28;20233;-72
2023/01/02 06:06:31;;;;;;;7.90;1.50;;;28.60;99.90;;;;;;5076834;28;20184;-70
2023/01/02 06:09:01;;;;;;;5.37;1.47;;;28.50;99.90;;;;;;5087421;28;20187;-74
2023/01/02 06:11:29;;;;;;;7.73;1.60;;;28.50;99.90;;;;;;5092598;28;20317;-70
2023/01/02 06:13:57;;;;;;;5.60;1.47;;;28.40;99.90;;;;;;5087737;28;20211;-71
2023/01/02 06:16:25;;;;;;;8.17;1.30;;;28.30;99.90;;;;;;5090457;28;20215;-69
2023/01/02 06:18:53;;;;;;;6.77;1.63;;;28.20;99.90;;;;;;5092014;28;20629;-69
2023/01/02 06:21:21;;;;;;;8.07;1.17;;;28.10;99.90;;;;;;5093058;28;20182;-69
2023/01/02 06:23:54;;;;;;;6.87;1.40;;;28.00;99.90;;;;;;5091325;28;20609;-74
2023/01/02 06:26:23;;;;;;;10.67;1.60;;;28.00;99.90;;;;;;5075113;28;20551;-70
2023/01/02 06:28:52;;;;;;;6.50;1.90;;;28.10;99.90;;;;;;5072736;28;20228;-71
2023/01/02 06:31:22;;;;;;;4.37;1.10;;;28.10;99.90;;;;;;5072740;28;20661;-71
2023/01/02 06:33:55;;;;;;;8.13;1.57;;;28.20;99.90;;;;;;5072022;28;20219;-73
2023/01/02 06:36:23;;;;;;;8.37;1.80;;;28.10;99.90;;;;;;5088671;28;20187;-68
2023/01/02 06:38:50;;;;;;;7.57;1.47;;;28.20;99.90;;;;;;5092834;28;20183;-68
2023/01/02 06:41:18;;;;;;;5.20;1.77;;;28.30;99.90;;;;;;5092560;28;20223;-69
2023/01/02 06:43:47;;;;;;;7.60;1.20;;;28.20;99.90;;;;;;5092857;28;20180;-71
2023/01/02 06:46:17;;;;;;;8.80;1.40;;;28.30;99.90;;;;;;5074428;28;20660;-69
2023/01/02 06:48:45;;;;;;;7.47;1.40;;;28.20;99.90;;;;;;5072107;28;20176;-69
2023/01/02 06:51:15;;;;;;;4.83;1.20;;;27.90;99.90;;;;;;5072376;28;20172;-74
2023/01/02 06:53:44;;;;;;;6.03;1.40;;;27.70;99.90;;;;;;5073405;28;20204;-72
2023/01/02 06:56:12;;;;;;;7.00;1.63;;;27.50;99.90;;;;;;5071796;28;20180;-70
2023/01/02 06:58:40;;;;;;;6.97;1.70;;;27.40;99.90;;;;;;5072283;28;20177;-70
2023/01/02 07:01:16;;;;;;;4.57;1.53;;;27.30;99.90;;;;;;5072275;28;20266;-72
2023/01/02 07:03:44;;;;;;;7.17;1.67;;;27.20;99.90;;;;;;5082918;28;20525;-73
2023/01/02 07:06:17;;;;;;;8.67;1.93;;;27.20;99.90;;;;;;5070875;28;20176;-69
2023/01/02 07:08:45;;;;;;;8.67;1.77;;;27.20;99.90;;;;;;5072175;28;20228;-69
2023/01/02 07:11:21;;;;;;;5.13;1.47;;;27.30;99.90;;;;;;5071531;28;20294;-69
2023/01/02 07:13:51;;;;;;;12.90;2.10;;;27.20;99.90;;;;;;5079833;28;20207;-72
2023/01/02 07:16:20;;;;;;;9.73;1.70;;;27.10;99.90;;;;;;5092090;28;20190;-71
2023/01/02 07:18:48;;;;;;;7.30;1.93;;;26.80;99.90;;;;;;5089073;28;20175;-68
2023/01/02 07:21:19;;;;;;;9.03;2.10;;;27.00;99.90;;;;;;5081021;28;20200;-71
2023/01/02 07:23:47;;;;;;;8.20;1.80;;;26.90;99.90;;;;;;5085192;28;20215;-73
2023/01/02 07:26:15;;;;;;;7.93;1.83;;;26.70;99.90;;;;;;5079489;28;20175;-69
2023/01/02 07:28:43;;;;;;;5.80;1.80;;;26.80;99.90;;;;;;5084636;28;20179;-68
2023/01/02 07:31:18;;;;;;;8.37;1.70;;;26.80;99.90;;;;;;5091375;28;20579;-68
2023/01/02 07:33:45;;;;;;;7.10;1.30;;;26.80;99.90;;;;;;5084048;28;20527;-71
2023/01/02 07:36:18;;;;;;;6.73;1.77;;;26.70;99.90;;;;;;5071672;28;20302;-68
2023/01/02 07:38:49;;;;;;;7.53;1.77;;;26.60;99.90;;;;;;5070487;28;20283;-69
2023/01/02 07:41:19;;;;;;;7.43;2.03;;;26.40;99.90;;;;;;5071456;28;20668;-72
2023/01/02 07:43:47;;;;;;;7.33;1.93;;;26.30;99.90;;;;;;5078085;28;20561;-71
2023/01/02 07:46:17;;;;;;;7.67;1.80;;;26.20;99.90;;;;;;5089961;28;20180;-69
2023/01/02 07:48:45;;;;;;;14.93;2.13;;;26.10;99.90;;;;;;5091415;28;20171;-71
2023/01/02 07:51:13;;;;;;;11.33;1.80;;;26.00;99.90;;;;;;5091955;28;20175;-71
2023/01/02 07:53:41;;;;;;;6.13;1.60;;;26.00;99.90;;;;;;5078933;28;20214;-68
2023/01/02 07:56:09;;;;;;;5.80;1.77;;;25.90;99.90;;;;;;5091372;28;20275;-72
2023/01/02 07:58:36;;;;;;;6.77;1.80;;;25.70;99.90;;;;;;5079384;28;20195;-72
2023/01/02 08:01:09;;;;;;;10.67;2.40;;;25.70;99.90;;;;;;5070429;28;20542;-70
2023/01/02 08:03:37;;;;;;;6.57;2.03;;;25.60;99.90;;;;;;5080430;28;20941;-73
2023/01/02 08:06:07;;;;;;;9.33;1.80;;;25.50;99.90;;;;;;5071612;28;20203;-68
2023/01/02 08:08:35;;;;;;;9.80;1.90;;;25.40;99.90;;;;;;5071531;28;20180;-69
2023/01/02 08:11:11;;;;;;;9.97;1.87;;;25.40;99.90;;;;;;5070956;28;20224;-73
2023/01/02 08:13:39;;;;;;;11.47;2.20;;;25.30;99.90;;;;;;5080278;28;20219;-70
2023/01/02 08:16:14;;;;;;;9.37;2.07;;;25.30;99.90;;;;;;5091573;28;20280;-69
2023/01/02 08:18:42;;;;;;;11.27;1.93;;;25.30;99.90;;;;;;5091319;28;20667;-70
2023/01/02 08:21:11;;;;;;;12.87;2.57;;;25.30;99.90;;;;;;5091629;28;20175;-70
2023/01/02 08:23:38;;;;;;;10.40;2.20;;;25.30;99.90;;;;;;5069481;28;20183;-68
2023/01/02 08:26:08;;;;;;;8.90;2.00;;;25.40;99.90;;;;;;5071045;28;20738;-69
2023/01/02 08:28:36;;;;;;;7.17;1.73;;;25.30;99.90;;;;;;5071190;28;20172;-68
2023/01/02 08:31:16;;;;;;;10.17;2.60;;;25.20;99.90;;;;;;5071287;28;20333;-70
2023/01/02 08:33:44;;;;;;;11.43;2.23;;;25.10;99.90;;;;;;5079508;28;20225;-70
2023/01/02 08:36:13;;;;;;;6.73;1.67;;;25.00;99.90;;;;;;5091242;28;20175;-72
2023/01/02 08:38:41;;;;;;;11.20;1.90;;;24.90;99.90;;;;;;5091385;28;20228;-71
2023/01/02 08:41:08;;;;;;;11.17;2.40;;;24.90;99.90;;;;;;5092123;28;20218;-73
2023/01/02 08:43:36;;;;;;;8.93;2.03;;;25.00;99.90;;;;;;5084616;28;20714;-70
2023/01/02 08:46:06;;;;;;;10.00;2.03;;;24.90;99.90;;;;;;5082250;28;20195;-69
2023/01/02 08:48:34;;;;;;;7.70;2.20;;;24.80;99.90;;;;;;5074442;28;20602;-71
2023/01/02 08:51:03;;;;;;;11.97;2.57;;;24.80;99.90;;;;;;5093334;28;20205;-68
2023/01/02 08:53:30;;;;;;;7.77;1.83;;;24.70;99.90;;;;;;5088654;28;20238;-70
2023/01/02 08:56:24;;;;;;;8.90;2.10;;;24.60;99.90;;;;;;5075872;28;20183;-71
2023/01/02 08:58:53;;;;;;;12.00;2.20;;;24.60;99.90;;;;;;5075962;28;20183;-68
2023/01/02 09:01:22;;;;;;;7.17;2.30;;;24.50;99.90;;;;;;5077066;28;20607;-70
2023/01/02 09:03:51;;;;;;;10.40;2.23;;;24.40;99.90;;;;;;5094600;28;20205;-71
2023/01/02 09:06:19;;;;;;;11.57;2.27;;;24.40;99.90;;;;;;5095642;28;20693;-68
2023/01/02 09:08:47;;;;;;;11.57;2.23;;;24.30;99.90;;;;;;5096025;28;20219;-71
2023/01/02 09:11:17;;;;;;;10.83;2.87;;;24.30;99.90;;;;;;5093963;28;20226;-69
2023/01/02 09:13:45;;;;;;;9.53;2.10;;;24.30;99.90;;;;;;5090510;28;20207;-71
2023/01/02 09:16:12;;;;;;;10.27;2.20;;;24.30;99.90;;;;;;5092442;28;20183;-71
2023/01/02 09:18:40;;;;;;;15.50;2.73;;;24.30;99.90;;;;;;5094959;28;20275;-73
2023/01/02 09:21:07;;;;;;;15.40;2.40;;;24.30;99.90;;;;;;5075498;28;20230;-70
2023/01/02 09:23:35;;;;;;;8.90;2.23;;;24.20;99.90;;;;;;5084021;28;20191;-72
2023/01/02 09:26:04;;;;;;;12.03;2.93;;;24.20;99.90;;;;;;5085584;28;20188;-70
2023/01/02 09:28:34;;;;;;;6.80;2.33;;;24.10;99.90;;;;;;5095722;28;20179;-73
2023/01/02 09:31:07;;;;;;;11.17;2.27;;;24.10;99.90;;;;;;5095391;28;20190;-71
2023/01/02 09:33:34;;;;;;;11.23;2.47;;;24.10;99.90;;;;;;5095456;28;20199;-71
2023/01/02 09:36:03;;;;;;;17.03;2.73;;;24.00;99.90;;;;;;5084734;28;20184;-74
2023/01/02 09:38:31;;;;;;;8.30;1.90;;;24.00;99.90;;;;;;5074990;28;20175;-74
2023/01/02 09:41:00;;;;;;;14.17;2.77;;;24.10;99.90;;;;;;5075198;28;20179;-72
2023/01/02 09:43:38;;;;;;;11.50;2.10;;;24.10;99.90;;;;;;5079029;28;20180;-71
2023/01/02 09:46:13;;;;;;;14.47;2.53;;;24.10;99.90;;;;;;5079861;28;20190;-74
2023/01/02 09:48:40;;;;;;;13.83;2.43;;;24.10;99.90;;;;;;5087932;28;20510;-72
2023/01/02 09:51:09;;;;;;;8.17;2.00;;;24.10;99.90;;;;;;5093465;28;20175;-71
2023/01/02 09:53:36;;;;;;;12.83;2.53;;;24.10;99.90;;;;;;5082985;28;20243;-69
2023/01/02 09:56:34;;;;;;;15.80;2.77;;;24.00;99.90;;;;;;5090083;28;20580;-70
2023/01/02 09:59:27;;;;;;;9.10;2.33;;;24.00;99.90;;;;;;5094994;28;20174;-69
2023/01/02 10:01:57;;;;;;;9.63;2.10;;;24.00;99.90;;;;;;5089037;28;20183;-69
2023/01/02 10:04:36;;;;;;;10.60;3.03;;;23.90;99.90;;;;;;5092667;28;20546;-71
2023/01/02 10:07:15;;;;;;;11.83;2.27;;;23.90;99.90;;;;;;5095254;28;20206;-69
2023/01/02 10:09:48;;;;;;;15.43;2.33;;;23.90;99.90;;;;;;5085099;28;20186;-71
2023/01/02 10:12:24;;;;;;;14.37;2.30;;;23.90;99.90;;;;;;5094553;28;20619;-72
2023/01/02 10:14:54;;;;;;;11.67;2.30;;;23.90;99.90;;;;;;5093744;28;20282;-71
2023/01/02 10:17:23;;;;;;;14.03;2.60;;;23.80;99.90;;;;;;5095006;28;20171;-69
2023/01/02 10:20:29;;;;;;;16.43;3.40;;;23.80;99.90;;;;;;5089827;28;20206;-71
2023/01/02 10:23:08;;;;;;;9.50;2.60;;;23.80;99.90;;;;;;5080312;28;20201;-67
2023/01/02 10:25:46;;;;;;;16.63;3.27;;;23.70;99.90;;;;;;5094514;28;20182;-70
2023/01/02 10:28:32;;;;;;;12.30;2.83;;;23.60;99.90;;;;;;5074958;28;20195;-70
2023/01/02 10:31:08;;;;;;;10.67;2.60;;;23.60;99.90;;;;;;5088771;28;20187;-68
2023/01/02 10:33:41;;;;;;;16.83;3.10;;;23.50;99.90;;;;;;5094327;28;20209;-68
2023/01/02 10:36:17;;;;;;;11.73;3.10;;;23.50;99.90;;;;;;5095102;28;20175;-68
2023/01/02 10:38:45;;;;;;;14.07;2.77;;;23.50;99.90;;;;;;5093956;28;20181;-71
2023/01/02 10:41:12;;;;;;;12.03;2.67;;;23.50;99.90;;;;;;5082543;28;20176;-68
2023/01/02 10:43:40;;;;;;;11.63;2.73;;;23.50;99.90;;;;;;5084282;28;20231;-68
2023/01/02 10:46:07;;;;;;;18.97;3.00;;;23.40;99.90;;;;;;5089110;28;20236;-68
2023/01/02 10:48:37;;;;;;;13.53;2.90;;;23.40;99.90;;;;;;5092630;28;20182;-67
2023/01/02 10:51:11;;;;;;;16.83;3.10;;;23.30;99.90;;;;;;5094102;28;20167;-68
2023/01/02 10:53:39;;;;;;;15.53;3.00;;;23.30;99.90;;;;;;5086507;28;20210;-68
2023/01/02 10:56:19;;;;;;;15.83;2.50;;;23.30;99.90;;;;;;5073900;28;20187;-70
2023/01/02 10:58:48;;;;;;;13.03;2.90;;;23.40;99.90;;;;;;5073480;28;20190;-67
2023/01/02 11:01:19;;;;;;;15.53;2.90;;;23.40;99.90;;;;;;5073579;28;20182;-70
2023/01/02 11:03:49;;;;;;;16.60;3.20;;;23.50;99.90;;;;;;5077374;28;20194;-71
2023/01/02 11:06:35;;;;;;;19.50;2.97;;;23.50;99.90;;;;;;5093802;28;20178;-69
2023/01/02 11:09:27;;;;;;;12.43;2.83;;;23.50;99.90;;;;;;5094116;28;20265;-70
2023/01/02 11:12:10;;;;;;;17.23;2.67;;;23.50;99.90;;;;;;5082987;28;20312;-68
2023/01/02 11:14:39;;;;;;;13.53;2.40;;;23.50;99.90;;;;;;5092725;28;20214;-69
2023/01/02 11:17:28;;;;;;;16.97;2.80;;;23.40;99.90;;;;;;5093964;28;20183;-67
2023/01/02 11:19:57;;;;;;;15.97;2.80;;;23.40;99.90;;;;;;5093620;28;20182;-69
2023/01/02 11:22:37;;;;;;;16.40;3.23;;;23.40;99.90;;;;;;5091238;28;20532;-71
2023/01/02 11:25:07;;;;;;;16.97;2.70;;;23.30;99.90;;;;;;5073423;28;20171;-68
2023/01/02 11:27:44;;;;;;;15.13;2.70;;;23.30;99.90;;;;;;5073129;28;20175;-68
2023/01/02 11:30:30;;;;;;;17.27;3.20;;;23.50;99.90;;;;;;5073305;28;20171;-68
2023/01/02 11:33:03;;;;;;;14.07;2.90;;;23.50;99.90;;;;;;5073203;28;20179;-70
2023/01/02 11:36:05;;;;;;;14.50;3.17;;;23.40;99.90;;;;;;5071935;28;20546;-68
2023/01/02 11:38:59;;;;;;;11.60;2.50;;;23.30;99.90;;;;;;5071764;28;20537;-68
2023/01/02 11:44:56;;;;;;;13.60;2.87;;;23.20;99.90;;;;;;5090407;28;20201;-69
2023/01/02 11:47:47;;;;;;;17.03;3.20;;;23.20;99.90;;;;;;5077923;28;20662;-70
2023/01/02 11:50:29;;;;;;;15.57;3.20;;;23.30;99.90;;;;;;5093332;28;20179;-70
2023/01/02 11:53:00;;;;;;;11.53;2.30;;;23.20;99.90;;;;;;5093117;28;20189;-68
2023/01/02 11:55:46;;;;;;;13.47;3.43;;;23.20;99.90;;;;;;5093582;28;20211;-68
2023/01/02 11:58:16;;;;;;;17.07;3.20;;;23.20;99.90;;;;;;5077945;28;20179;-68
2023/01/02 12:00:48;;;;;;;14.17;4.03;;;23.30;99.90;;;;;;5073019;28;20665;-68
2023/01/02 12:03:21;;;;;;;11.57;2.67;;;23.30;99.90;;;;;;5090233;28;20171;-70
2023/01/02 12:05:58;;;;;;;19.37;3.90;;;23.20;99.90;;;;;;5093183;28;20182;-68
2023/01/02 12:08:58;;;;;;;12.70;2.70;;;23.20;99.90;;;;;;5093323;28;20171;-68
2023/01/02 12:11:35;;;;;;;12.17;2.53;;;23.10;99.90;;;;;;5081434;28;20629;-69
2023/01/02 12:14:37;;;;;;;12.77;2.80;;;23.00;99.90;;;;;;5078347;28;20619;-68
2023/01/02 12:17:26;;;;;;;14.33;2.90;;;22.90;99.90;;;;;;5095662;28;20171;-68
2023/01/02 12:20:01;;;;;;;17.13;3.03;;;22.90;99.90;;;;;;5097104;28;20268;-68
2023/01/02 12:22:32;;;;;;;14.57;2.70;;;22.80;99.90;;;;;;5096425;28;20175;-68
2023/01/02 12:25:23;;;;;;;12.17;3.43;;;22.80;99.90;;;;;;5088255;28;20244;-68
2023/01/02 12:28:02;;;;;;;21.23;3.37;;;22.80;99.90;;;;;;5076600;28;20186;-69
2023/01/02 12:30:35;;;;;;;16.17;3.30;;;22.70;99.90;;;;;;5076572;28;20186;-69
2023/01/02 12:33:12;;;;;;;19.93;3.33;;;22.80;99.90;;;;;;5091541;28;20190;-70
2023/01/02 12:36:04;;;;;;;18.43;3.80;;;22.70;99.90;;;;;;5097390;28;20215;-72
2023/01/02 12:38:35;;;;;;;17.03;3.70;;;22.70;99.90;;;;;;5090698;28;20633;-68
2023/01/02 12:41:26;;;;;;;12.47;2.67;;;22.80;99.90;;;;;;5076690;28;20183;-68
2023/01/02 12:44:08;;;;;;;13.10;3.27;;;22.80;99.90;;;;;;5094458;28;20274;-68
2023/01/02 12:46:44;;;;;;;13.27;3.27;;;22.80;99.90;;;;;;5085610;28;20184;-69
2023/01/02 12:49:27;;;;;;;13.47;3.23;;;22.70;99.90;;;;;;5085149;28;20176;-69
2023/01/02 12:52:22;;;;;;;19.63;3.27;;;22.70;99.90;;;;;;5085406;28;20237;-70
2023/01/02 12:54:56;;;;;;;13.67;3.50;;;22.60;99.90;;;;;;5078713;28;20207;-69
2023/01/02 12:57:33;;;;;;;11.90;3.07;;;22.50;99.90;;;;;;5086184;28;20303;-68
2023/01/02 13:00:31;;;;;;;21.00;3.53;;;22.50;99.90;;;;;;5096436;28;20636;-68
2023/01/02 13:03:23;;;;;;;10.00;2.60;;;22.50;99.90;;;;;;5096588;28;20167;-70
2023/01/02 13:06:02;;;;;;;11.50;2.90;;;22.50;99.90;;;;;;5082543;28;20183;-70
2023/01/02 13:08:53;;;;;;;20.93;3.27;;;22.50;99.90;;;;;;5075956;28;20190;-69
2023/01/02 13:11:33;;;;;;;14.07;3.07;;;22.40;99.90;;;;;;5097094;28;20595;-70
2023/01/02 13:14:04;;;;;;;13.27;2.63;;;22.40;99.90;;;;;;5075682;28;20707;-69
2023/01/02 13:16:32;;;;;;;10.63;2.93;;;22.30;99.90;;;;;;5075620;28;20183;-73
2023/01/02 13:19:29;;;;;;;13.30;3.10;;;22.30;99.90;;;;;;5075706;28;20519;-74
2023/01/02 13:22:19;;;;;;;16.27;2.83;;;22.20;99.90;;;;;;5077991;28;20191;-72
2023/01/02 13:24:49;;;;;;;10.10;3.03;;;22.20;99.90;;;;;;5095447;28;20198;-70
2023/01/02 13:27:17;;;;;;;13.87;2.73;;;22.20;99.90;;;;;;5095552;28;20175;-71
2023/01/02 13:29:46;;;;;;;10.40;2.73;;;22.20;99.90;;;;;;5095662;28;20171;-71